Latest Weather Observations for Williamtown

IDN60901

Issued at 7:12 am EDT Saturday 20 December 2014 (issued every 10 minutes, with the page automatically refreshed every 10 minutes)

About weather observations | Map of Sydney area stations | Latest observations for Sydney area | Other Formats
Station Details ID: 061078 Name: WILLIAMTOWN RAAF Lat: -32.79 Lon: 151.84 Height: 9.0 m
Data from the previous 72 hours. | See also: Recent months at Williamtown
Date/Time
EDT
Tmp

°C
App
Tmp
°C
Dew
Point
°C
Rel
Hum
%
Delta-T

°C
Wind Press
QNH
hPa
Press
MSL
hPa
Rain
since
9 am
mm
Dir
 
Spd
km/h
Gust
km/h
Spd
kts
Gust
kts
20/07:00am 18.7 18.6 13.4 71 3.0 SSE 6 9 3 5 1017.4 - 0.0
20/06:30am 17.3 18.6 14.1 81 1.8 CALM 0 0 0 0 1017.1 - 0.0
20/06:00am 16.8 17.7 13.0 78 2.1 CALM 0 0 0 0 1016.9 1016.9 0.0
20/05:30am 15.8 16.3 12.9 83 1.6 S 2 7 1 4 1016.8 - 0.0
20/05:00am 15.7 16.5 12.4 81 1.8 CALM 0 0 0 0 1016.6 - 0.0
20/04:30am 16.5 17.2 12.1 75 2.4 CALM 0 0 0 0 1016.5 - 0.0
20/04:00am 16.9 17.7 12.4 75 2.5 CALM 0 0 0 0 1016.5 - 0.0
20/03:30am 17.4 17.7 12.1 71 2.9 SE 2 7 1 4 1016.6 - 0.0
20/03:00am 18.1 16.9 11.5 65 3.6 SE 9 11 5 6 1016.6 1016.6 0.0
20/02:30am 18.8 16.1 10.2 57 4.6 SSE 15 19 8 10 1016.8 - 0.0
20/02:00am 19.0 17.3 11.3 61 4.2 SE 11 15 6 8 1017.0 - 0.0
20/01:30am 19.3 17.1 10.8 58 4.6 S 13 19 7 10 1017.3 - 0.0
20/01:00am 18.9 17.4 12.0 64 3.8 S 11 13 6 7 1017.7 - 0.0
20/12:30am 19.0 17.9 12.1 64 3.8 SE 9 13 5 7 1018.0 - 0.0
20/12:00am 19.2 15.8 11.3 60 4.3 SSE 20 28 11 15 1018.2 1018.2 0.0
 
Date/Time
EDT
Tmp

°C
App
Tmp
°C
Dew
Point
°C
Rel
Hum
%
Delta-T

°C
Wind Press
QNH
hPa
Press
MSL
hPa
Rain
since
9 am
mm
Dir
 
Spd
km/h
Gust
km/h
Spd
kts
Gust
kts
19/11:30pm 19.2 16.7 12.2 64 3.9 SE 17 24 9 13 1018.3 - 0.0
19/11:00pm 19.7 17.1 11.9 60 4.3 SE 17 24 9 13 1018.2 - 0.0
19/10:30pm 19.8 17.0 11.4 58 4.6 SE 17 22 9 12 1018.0 - 0.0
19/10:00pm 19.9 17.0 12.2 61 4.3 SE 19 26 10 14 1017.9 - 0.0
19/09:30pm 19.9 17.2 11.8 59 4.5 SE 17 22 9 12 1017.3 - 0.0
19/09:00pm 20.0 16.9 12.3 61 4.3 SE 20 26 11 14 1016.9 - 0.0
19/08:30pm 20.1 17.2 12.2 60 4.4 SE 19 24 10 13 1016.5 - 0.0
19/08:00pm 20.1 16.9 12.0 59 4.5 SE 20 26 11 14 1016.0 - 0.0
19/07:30pm 20.4 17.3 12.2 59 4.6 SSE 20 30 11 16 1015.4 - 0.0
19/07:00pm 20.7 16.7 11.9 57 4.9 SSE 24 30 13 16 1014.7 - 0.0
19/06:30pm 20.9 16.6 12.2 57 4.9 SSE 26 33 14 18 1014.0 - 0.0
19/06:00pm 21.5 16.7 11.8 54 5.4 SSE 28 35 15 19 1013.5 1013.5 0.0
19/05:30pm 21.9 17.1 11.7 52 5.7 SSE 28 35 15 19 1012.9 - 0.0
19/05:00pm 21.0 16.2 11.7 55 5.2 SSE 28 33 15 18 1012.6 - 0.0
19/04:30pm 22.3 18.0 13.1 56 5.3 SSE 28 35 15 19 1012.4 - 0.0
19/04:00pm 21.9 17.6 13.2 57 5.0 SSE 28 37 15 20 1012.5 - 0.0
19/03:30pm 22.4 18.5 13.4 56 5.2 SSE 26 37 14 20 1012.5 - 0.0
19/03:00pm 22.1 17.6 12.6 55 5.4 SSE 28 41 15 22 1012.4 1012.4 0.0
19/02:30pm 22.8 17.7 12.0 50 6.1 SSE 30 41 16 22 1012.6 - 0.0
19/02:00pm 23.0 18.1 12.5 51 6.0 SSE 30 37 16 20 1012.8 - 0.0
19/01:30pm 22.5 17.7 11.6 50 6.1 SSE 28 37 15 20 1013.0 - 0.0
19/01:00pm 23.4 19.1 13.2 52 5.9 SSE 28 39 15 21 1013.2 - 0.0
19/12:30pm 22.9 18.3 13.6 55 5.4 S 30 37 16 20 1013.5 - 0.0
19/12:00pm 22.8 17.8 12.2 51 6.0 S 30 39 16 21 1013.4 1013.4 0.0
19/11:30am 22.9 18.5 14.2 58 5.1 S 30 37 16 20 1013.3 - 0.0
19/11:00am 23.2 18.6 13.6 54 5.6 S 30 41 16 22 1013.3 - 0.0
19/10:30am 21.1 16.9 13.6 62 4.3 S 28 37 15 20 1013.3 - 0.0
19/10:00am 21.2 16.4 14.0 63 4.2 S 32 41 17 22 1013.2 - 0.0
19/09:30am 20.4 16.6 14.6 69 3.4 S 28 37 15 20 1013.2 - 0.0
19/09:00am 20.8 16.9 14.5 67 3.7 SSW 28 43 15 23 1013.0 1013.0 0.0
19/08:30am 20.6 16.5 15.0 70 3.3 SSW 30 41 16 22 1012.7 - 0.0
19/08:00am 20.7 16.4 15.3 71 3.2 S 32 43 17 23 1011.9 - 0.0
19/07:37am 20.1 16.4 15.9 77 2.5 S 30 48 16 26 1011.3 - 0.0
19/07:30am 20.1 15.7 15.7 76 2.6 S 33 48 18 26 1011.1 - 0.0
19/07:05am 19.7 15.9 15.8 78 2.3 S 30 39 16 21 1010.6 - 0.0
19/07:00am 19.7 15.9 15.8 78 2.3 S 30 37 16 20 1010.5 - 0.0
19/06:35am 19.8 15.7 16.5 81 2.0 S 33 52 18 28 1009.9 - 0.0
19/06:30am 19.7 15.2 16.5 82 1.9 S 35 52 19 28 1009.9 - 0.0
19/06:21am 19.7 15.4 16.9 84 1.7 S 35 50 19 27 1009.7 - 0.0
19/06:10am 19.4 15.5 14.4 73 2.9 S 28 44 15 24 1009.4 - 0.0
19/06:00am 17.3 14.7 9.2 59 4.2 WNW 13 17 7 9 1008.5 1008.5 0.0
19/05:30am 18.1 14.3 8.9 55 4.8 W 19 24 10 13 1007.9 - 0.0
19/05:00am 17.6 14.4 10.1 61 4.0 WNW 17 20 9 11 1007.0 - 0.0
19/04:30am 17.6 14.5 10.3 62 3.9 WNW 17 20 9 11 1006.6 - 0.0
19/04:00am 17.8 16.4 13.4 75 2.5 NW 13 17 7 9 1006.4 - 0.0
19/03:30am 18.1 17.6 15.9 87 1.3 NW 13 15 7 8 1006.0 - 0.0
19/03:00am 18.4 17.4 16.7 90 1.0 WNW 17 17 9 9 1005.8 1005.8 0.0
19/02:30am 18.6 18.2 17.1 91 0.9 WNW 15 17 8 9 1005.7 - 0.0
19/02:00am 18.9 19.4 17.4 91 0.9 NW 11 13 6 7 1005.9 - 0.0
19/01:30am 18.4 19.6 17.4 94 0.6 W 7 9 4 5 1006.1 - 0.0
19/01:00am 18.5 21.2 17.8 96 0.4 CALM 0 0 0 0 1006.3 - 0.0
19/12:30am 18.6 21.5 18.1 97 0.3 CALM 0 0 0 0 1006.4 - 0.0
19/12:00am 19.4 22.4 18.4 94 0.6 CALM 0 0 0 0 1006.5 1006.5 0.0
 
Date/Time
EDT
Tmp

°C
App
Tmp
°C
Dew
Point
°C
Rel
Hum
%
Delta-T

°C
Wind Press
QNH
hPa
Press
MSL
hPa
Rain
since
9 am
mm
Dir
 
Spd
km/h
Gust
km/h
Spd
kts
Gust
kts
18/11:30pm 20.4 23.1 19.5 95 0.6 N 4 9 2 5 1006.6 - 0.0
18/11:00pm 20.1 22.3 19.1 94 0.6 N 6 11 3 6 1006.6 - 0.0
18/10:30pm 21.7 23.8 20.1 91 1.0 NE 9 11 5 6 1006.7 - 0.0
18/10:00pm 21.6 23.8 19.7 89 1.2 ENE 7 11 4 6 1006.4 - 0.0
18/09:30pm 22.3 24.5 20.3 88 1.3 S 9 13 5 7 1006.1 - 0.0
18/09:00pm 23.4 24.8 20.3 83 2.0 SSE 13 17 7 9 1005.6 1005.6 0.0
18/08:30pm 24.9 26.3 20.3 75 3.0 N 13 19 7 10 1004.7 - 0.0
18/08:00pm 25.2 25.5 20.5 75 3.1 N 19 26 10 14 1004.5 - 0.0
18/07:30pm 25.3 26.1 20.6 75 3.1 NNE 17 24 9 13 1004.4 - 0.0
18/07:00pm 25.6 26.4 20.7 74 3.2 NE 17 26 9 14 1004.5 - 0.0
18/06:30pm 26.0 27.0 21.0 74 3.3 NE 17 24 9 13 1004.3 - 0.0
18/06:00pm 25.3 26.1 20.7 75 3.0 NE 17 24 9 13 1004.1 1004.1 0.0
18/05:30pm 25.6 25.9 20.4 73 3.4 NE 19 28 10 15 1004.2 - 0.0
18/05:00pm 26.0 27.2 20.7 72 3.5 NE 15 20 8 11 1004.1 - 0.0
18/04:30pm 26.3 26.6 20.7 71 3.7 E 20 26 11 14 1004.3 - 0.0
18/04:00pm 26.5 26.3 20.6 70 3.9 E 22 28 12 15 1004.4 - 0.0
18/03:30pm 26.3 27.8 20.5 70 3.8 NE 13 19 7 10 1005.1 - 0.0
18/03:00pm 25.8 26.9 20.5 72 3.5 E 15 19 8 10 1005.5 1005.5 0.0
18/02:30pm 26.0 27.4 20.4 71 3.7 E 13 19 7 10 1005.9 - 0.0
18/02:00pm 26.2 27.2 20.2 69 3.9 SE 15 20 8 11 1006.0 - 0.0
18/01:30pm 26.3 27.2 19.3 65 4.5 SE 13 17 7 9 1006.1 - 0.0
18/01:00pm 26.0 26.3 19.5 67 4.2 SSE 17 22 9 12 1006.5 - 0.0
18/12:30pm 25.6 25.8 19.4 68 4.0 SE 17 24 9 13 1006.5 - 0.0
18/12:00pm 26.1 26.3 19.4 66 4.3 SSE 17 20 9 11 1006.8 1006.8 0.0
18/11:30am 26.6 28.6 18.8 62 5.0 WNW 6 11 3 6 1007.2 - 0.0
18/11:00am 25.5 26.9 18.6 65 4.4 NW 9 13 5 7 1007.5 - 0.0
18/10:30am 24.9 25.0 18.3 66 4.2 ENE 15 20 8 11 1007.7 - 0.0
18/10:00am 24.1 23.9 18.4 70 3.6 NE 17 26 9 14 1007.9 - 0.0
18/09:30am 23.1 23.9 18.2 74 3.1 ENE 11 17 6 9 1008.3 - 0.0
18/09:00am 23.3 23.1 18.4 74 3.1 NE 17 26 9 14 1009.2 1009.2 1.2
18/08:30am 22.6 22.3 18.3 76 2.7 E 17 24 9 13 1009.0 - 1.2
18/08:00am 22.1 22.8 17.9 77 2.6 ENE 11 17 6 9 1009.3 - 1.2
18/07:30am 21.4 22.2 18.2 82 2.0 ENE 11 17 6 9 1009.1 - 1.2
18/07:00am 20.5 21.5 17.7 84 1.7 E 9 11 5 6 1009.0 - 1.2
18/06:30am 20.0 21.3 17.6 86 1.5 E 7 11 4 6 1008.7 - 1.2
18/06:00am 19.3 20.6 17.5 89 1.1 ENE 7 9 4 5 1008.6 1008.6 1.2
18/05:30am 18.9 21.0 17.3 90 1.0 E 2 7 1 4 1008.6 - 1.2
18/05:00am 19.2 20.6 17.4 89 1.1 E 6 11 3 6 1008.2 - 1.2
18/04:30am 19.8 19.5 17.3 85 1.5 E 15 19 8 10 1007.8 - 1.2
18/04:00am 19.6 20.5 17.5 88 1.3 ESE 9 13 5 7 1008.3 - 1.2
18/03:30am 19.7 19.0 16.4 81 2.0 E 15 17 8 9 1008.3 - 1.2
18/03:00am 19.2 19.6 17.2 88 1.2 SSE 11 13 6 7 1008.9 1008.9 1.2
18/02:30am 19.8 20.0 16.7 82 1.9 E 11 17 6 9 1009.2 - 1.2
18/02:23am 19.9 20.5 16.9 83 1.8 ENE 9 17 5 9 1009.2 - 1.2
18/02:04am 19.9 20.9 16.9 83 1.8 NNE 7 11 4 6 1010.5 - 0.6
18/02:00am 20.2 21.3 16.6 80 2.2 ENE 6 11 3 6 1010.2 - 0.2
18/01:30am 20.7 20.3 15.3 71 3.2 E 11 13 6 7 1009.8 - 0.0
18/01:00am 20.7 20.3 15.3 71 3.2 ESE 11 15 6 8 1009.5 - 0.0
18/12:30am 20.5 20.3 15.6 73 2.9 ESE 11 13 6 7 1010.2 - 0.0
18/12:00am 20.6 20.7 15.4 72 3.1 E 9 15 5 8 1010.6 1010.6 0.0
 
Date/Time
EDT
Tmp

°C
App
Tmp
°C
Dew
Point
°C
Rel
Hum
%
Delta-T

°C
Wind Press
QNH
hPa
Press
MSL
hPa
Rain
since
9 am
mm
Dir
 
Spd
km/h
Gust
km/h
Spd
kts
Gust
kts
17/11:30pm 20.5 22.0 15.6 73 2.9 ENE 2 11 1 6 1011.1 - 0.0
17/11:00pm 20.5 20.6 15.4 72 3.0 ESE 9 13 5 7 1010.6 - 0.0
17/10:30pm 20.5 20.5 15.3 72 3.1 SE 9 13 5 7 1011.6 - 0.0
17/10:00pm 20.6 20.1 15.0 70 3.3 SE 11 15 6 8 1011.0 - 0.0
17/09:30pm 20.6 19.2 14.6 68 3.5 SE 15 19 8 10 1010.5 - 0.0
17/09:00pm 20.5 18.8 14.7 69 3.4 SE 17 19 9 10 1010.2 1010.2 0.0
17/08:30pm 20.5 18.6 14.3 67 3.6 SE 17 20 9 11 1009.8 - 0.0
17/08:00pm 20.7 18.8 14.2 66 3.8 SE 17 22 9 12 1009.8 - 0.0
17/07:30pm 20.7 18.5 14.4 67 3.7 SE 19 24 10 13 1009.5 - 0.0
17/07:00pm 20.9 18.9 13.8 64 4.1 SE 17 22 9 12 1009.4 - 0.0
17/06:30pm 21.0 18.4 13.9 64 4.1 SE 20 24 11 13 1008.9 - 0.0
17/06:00pm 21.9 19.0 14.0 61 4.6 SSE 22 28 12 15 1008.2 1008.2 0.0
17/05:30pm 22.3 18.8 13.3 56 5.2 SSE 24 32 13 17 1007.9 - 0.0
17/05:00pm 22.2 18.0 13.4 57 5.1 S 28 35 15 19 1007.4 - 0.0
17/04:30pm 22.6 18.4 13.5 56 5.3 SSE 28 35 15 19 1007.4 - 0.0
17/04:00pm 22.3 17.6 13.1 56 5.3 SSE 30 37 16 20 1007.4 - 0.0
17/03:30pm 22.4 17.1 12.4 53 5.7 SSE 32 39 17 21 1007.4 - 0.0
17/03:00pm 21.8 17.0 12.9 57 5.1 SSE 30 41 16 22 1007.5 1007.5 0.0
17/02:30pm 22.6 18.4 13.5 56 5.3 S 28 37 15 20 1007.4 - 0.0
17/02:00pm 21.8 16.6 12.9 57 5.1 S 32 43 17 23 1007.4 - 0.0
17/01:30pm 21.9 16.8 13.2 57 5.0 S 32 46 17 25 1007.4 - 0.0
17/01:00pm 23.0 17.9 13.7 55 5.4 S 33 41 18 22 1007.4 - 0.0
17/12:43pm 22.8 17.0 13.9 57 5.2 SSE 37 46 20 25 1007.4 - 0.0
17/12:30pm 22.4 17.1 14.2 59 4.8 S 35 46 19 25 1007.4 - 0.0
17/12:00pm 22.6 16.8 13.9 58 5.1 S 37 50 20 27 1007.3 1007.3 0.0
17/11:30am 22.1 16.6 14.6 62 4.4 S 37 48 20 26 1007.0 - 0.0
17/11:10am 22.3 17.2 14.7 62 4.5 S 35 54 19 29 1006.7 - 0.0
17/11:00am 22.3 16.5 14.9 63 4.4 S 39 52 21 28 1006.8 - 0.0
17/10:30am 22.0 16.8 15.5 66 3.9 S 37 50 20 27 1006.6 - 0.0
17/10:00am 22.6 17.7 15.4 64 4.3 S 35 56 19 30 1006.3 - 0.0
17/09:36am 22.6 17.0 15.6 64 4.2 S 39 57 21 31 1006.1 - 0.0
17/09:30am 22.4 17.0 15.9 66 3.9 S 39 52 21 28 1006.0 - 0.0
17/09:12am 22.3 18.2 16.4 69 3.6 S 33 52 18 28 1005.7 - 0.0
17/09:00am 22.0 17.0 16.2 69 3.5 S 37 54 20 29 1005.5 1005.5 0.0
17/08:30am 22.5 16.6 16.8 70 3.5 S 43 57 23 31 1005.2 - 0.0
17/08:00am 21.8 16.9 17.3 75 2.8 SSW 39 50 21 27 1004.5 - 0.0
17/07:38am 21.7 17.5 18.0 79 2.3 SSW 37 56 20 30 1003.8 - 0.0
17/07:34am 21.6 18.2 18.1 80 2.2 S 33 50 18 27 1003.7 - 0.0

Latest Capital City Observations: Canberra | Sydney | Melbourne | Brisbane | Adelaide | Perth | Hobart | Darwin

Other Formats:

Comma delimited format used in spreadsheet applications
http://www.bom.gov.au/fwo/IDN60901/IDN60901.94776.axf

JavaScript Object Notation format (JSON) in row-major order
http://www.bom.gov.au/fwo/IDN60901/IDN60901.94776.json